createdAt,value
2018-12-11T00:00:45.744Z,15.23
2018-12-11T00:03:14.288Z,15.07
2018-12-11T00:05:42.767Z,15.00
2018-12-11T00:08:11.314Z,14.73
2018-12-11T00:10:39.776Z,15.63
2018-12-11T00:13:08.227Z,15.23
2018-12-11T00:15:36.797Z,14.00
2018-12-11T00:18:05.290Z,14.87
2018-12-11T00:20:33.727Z,14.00
2018-12-11T00:23:02.183Z,14.23
2018-12-11T00:25:30.642Z,14.67
2018-12-11T00:28:05.686Z,13.47
2018-12-11T00:30:34.441Z,14.00
2018-12-11T00:33:02.932Z,13.90
2018-12-11T00:35:31.622Z,14.43
2018-12-11T00:38:00.977Z,13.60
2018-12-11T00:40:29.377Z,15.20
2018-12-11T00:42:57.825Z,15.33
2018-12-11T00:45:26.460Z,14.37
2018-12-11T00:47:55.025Z,14.63
2018-12-11T00:50:24.560Z,13.40
2018-12-11T00:52:53.135Z,15.13
2018-12-11T00:55:21.769Z,14.40
2018-12-11T00:57:50.435Z,14.93
2018-12-11T01:00:18.869Z,15.00
2018-12-11T01:02:47.562Z,15.03
2018-12-11T01:05:16.445Z,15.27
2018-12-11T01:07:44.906Z,15.57
2018-12-11T01:10:13.455Z,15.70
2018-12-11T01:12:42.008Z,15.83
2018-12-11T01:15:10.679Z,16.40
2018-12-11T01:17:39.210Z,16.40
2018-12-11T01:23:53.405Z,15.73
2018-12-11T01:26:21.915Z,15.00
2018-12-11T01:28:50.854Z,15.87
2018-12-11T01:31:19.428Z,14.90
2018-12-11T01:33:48.527Z,15.63
2018-12-11T01:36:17.008Z,15.93
2018-12-11T01:38:45.772Z,15.13
2018-12-11T01:41:14.243Z,14.67
2018-12-11T01:43:42.703Z,14.77
2018-12-11T01:46:11.181Z,15.00
2018-12-11T01:48:39.854Z,14.47
2018-12-11T01:51:08.315Z,14.23
2018-12-11T01:53:36.832Z,15.13
2018-12-11T01:56:05.469Z,15.07
2018-12-11T01:58:34.056Z,14.63
2018-12-11T02:01:02.607Z,14.90
2018-12-11T02:03:32.088Z,14.13
2018-12-11T02:06:00.740Z,13.97
2018-12-11T02:08:29.303Z,13.77
2018-12-11T02:10:57.747Z,13.53
2018-12-11T02:13:26.155Z,12.90
2018-12-11T02:15:54.646Z,14.30
2018-12-11T02:18:23.295Z,13.27
2018-12-11T02:20:51.953Z,14.27
2018-12-11T02:23:20.712Z,13.83
2018-12-11T02:25:49.300Z,13.07
2018-12-11T02:28:17.817Z,13.40
2018-12-11T02:30:46.909Z,13.50
2018-12-11T02:33:15.322Z,13.10
2018-12-11T02:35:43.938Z,12.67
2018-12-11T02:38:12.415Z,13.00
2018-12-11T02:40:40.862Z,11.80
2018-12-11T02:43:09.423Z,12.23
2018-12-11T02:45:37.960Z,13.03
2018-12-11T02:48:06.518Z,12.10
2018-12-11T02:50:35.331Z,11.23
2018-12-11T02:53:03.863Z,11.33
2018-12-11T02:55:32.403Z,11.77
2018-12-11T02:58:00.813Z,11.13
2018-12-11T03:00:29.341Z,10.50
2018-12-11T03:02:57.910Z,11.60
2018-12-11T03:05:26.621Z,11.20
2018-12-11T03:07:55.103Z,10.87
2018-12-11T03:10:23.588Z,10.27
2018-12-11T03:12:52.128Z,10.47
2018-12-11T03:15:21.160Z,10.23
2018-12-11T03:17:49.611Z,10.30
2018-12-11T03:20:18.625Z,10.10
2018-12-11T03:22:47.093Z,10.53
2018-12-11T03:25:16.097Z,10.03
2018-12-11T03:27:44.666Z,9.63
2018-12-11T03:30:13.099Z,9.47
2018-12-11T03:32:42.171Z,10.50
2018-12-11T03:35:10.625Z,8.97
2018-12-11T03:37:39.150Z,9.30
2018-12-11T03:40:07.735Z,9.13
2018-12-11T03:42:36.224Z,9.13
2018-12-11T03:45:04.876Z,8.57
2018-12-11T03:47:33.378Z,8.40
2018-12-11T03:50:01.822Z,8.03
2018-12-11T03:52:30.765Z,9.07
2018-12-11T03:54:59.180Z,7.93
2018-12-11T03:57:27.747Z,8.10
2018-12-11T03:59:56.230Z,8.17
2018-12-11T04:02:24.671Z,7.70
2018-12-11T04:04:53.119Z,7.17
2018-12-11T04:07:21.759Z,7.70
2018-12-11T04:09:50.398Z,7.60
2018-12-11T04:12:19.168Z,7.10
2018-12-11T04:14:48.397Z,7.17
2018-12-11T04:17:16.803Z,6.67
2018-12-11T04:19:45.445Z,7.00
2018-12-11T04:22:13.870Z,6.80
2018-12-11T04:24:42.326Z,6.97
2018-12-11T04:27:10.918Z,6.43
2018-12-11T04:29:40.199Z,6.30
2018-12-11T04:32:08.702Z,6.50
2018-12-11T04:34:37.328Z,6.70
2018-12-11T04:37:06.602Z,5.90
2018-12-11T04:39:35.080Z,6.10
2018-12-11T04:42:03.501Z,6.50
2018-12-11T04:44:31.988Z,5.97
2018-12-11T04:47:00.503Z,6.00
2018-12-11T04:49:28.943Z,6.23
2018-12-11T04:51:57.408Z,5.73
2018-12-11T04:54:26.151Z,5.90
2018-12-11T04:56:54.576Z,5.50
2018-12-11T04:59:23.047Z,6.37
2018-12-11T05:01:51.487Z,5.83
2018-12-11T05:04:20.025Z,5.87
2018-12-11T05:06:48.510Z,5.90
2018-12-11T05:09:17.001Z,5.50
2018-12-11T05:11:46.694Z,5.07
2018-12-11T05:14:15.483Z,5.17
2018-12-11T05:16:44.012Z,5.23
2018-12-11T05:19:13.164Z,4.97
2018-12-11T05:21:41.930Z,5.33
2018-12-11T05:24:10.494Z,5.50
2018-12-11T05:26:38.924Z,4.90
2018-12-11T05:29:10.395Z,5.00
2018-12-11T05:31:38.975Z,4.50
2018-12-11T05:34:07.553Z,4.97
2018-12-11T05:36:35.979Z,4.70
2018-12-11T05:39:06.650Z,4.37
2018-12-11T05:41:35.765Z,4.43
2018-12-11T05:44:04.254Z,4.20
2018-12-11T05:46:32.682Z,4.43
2018-12-11T05:49:01.185Z,4.50
2018-12-11T05:51:29.683Z,4.43
2018-12-11T05:53:58.215Z,4.57
2018-12-11T05:56:26.882Z,4.30
2018-12-11T05:58:55.417Z,4.73
2018-12-11T06:01:23.965Z,4.13
2018-12-11T06:03:52.448Z,4.00
2018-12-11T06:06:20.957Z,3.83
2018-12-11T06:08:49.684Z,3.83
2018-12-11T06:11:18.189Z,4.30
2018-12-11T06:13:46.675Z,3.60
2018-12-11T06:16:15.563Z,4.03
2018-12-11T06:18:44.276Z,3.70
2018-12-11T06:21:19.221Z,3.63
2018-12-11T06:23:47.871Z,3.70
2018-12-11T06:26:16.425Z,3.50
2018-12-11T06:28:44.978Z,3.20
2018-12-11T06:31:13.578Z,3.20
2018-12-11T06:33:42.248Z,3.50
2018-12-11T06:36:10.781Z,3.00
2018-12-11T06:38:39.379Z,3.30
2018-12-11T06:41:07.809Z,2.87
2018-12-11T06:43:37.029Z,2.90
2018-12-11T06:46:06.192Z,3.07
2018-12-11T06:48:35.422Z,3.30
2018-12-11T06:51:04.278Z,2.97
2018-12-11T06:53:32.819Z,2.90
2018-12-11T06:56:01.957Z,3.30
2018-12-11T06:58:30.915Z,2.90
2018-12-11T07:00:59.491Z,2.80
2018-12-11T07:03:27.964Z,2.53
2018-12-11T07:05:56.455Z,2.63
2018-12-11T07:08:25.594Z,2.80
2018-12-11T07:10:54.382Z,3.10
2018-12-11T07:13:23.198Z,2.73
2018-12-11T07:15:51.961Z,2.60
2018-12-11T07:18:44.955Z,2.50
2018-12-11T07:21:13.705Z,2.40
2018-12-11T07:23:42.355Z,2.50
2018-12-11T07:26:11.015Z,2.50
2018-12-11T07:28:39.449Z,2.67
2018-12-11T07:31:08.715Z,2.63
2018-12-11T07:33:37.363Z,2.37
2018-12-11T07:36:05.958Z,2.30
2018-12-11T07:38:34.786Z,2.43
2018-12-11T07:41:03.547Z,2.63
2018-12-11T07:43:32.201Z,2.77
2018-12-11T07:46:00.649Z,2.63
2018-12-11T07:48:29.191Z,2.40
2018-12-11T07:50:58.508Z,2.43
2018-12-11T07:53:27.607Z,2.43
2018-12-11T07:56:00.252Z,2.03
2018-12-11T07:58:27.192Z,2.50
2018-12-11T08:00:55.748Z,2.70
2018-12-11T08:03:24.201Z,2.90
2018-12-11T08:05:53.002Z,2.70
2018-12-11T08:08:21.543Z,3.17
2018-12-11T08:10:50.008Z,3.73
2018-12-11T08:13:18.467Z,3.97
2018-12-11T08:15:46.880Z,3.70
2018-12-11T08:18:15.328Z,4.17
2018-12-11T08:20:43.822Z,4.77
2018-12-11T08:23:13.069Z,4.53
2018-12-11T08:25:41.475Z,5.20
2018-12-11T08:28:09.950Z,5.50
2018-12-11T08:30:38.565Z,5.50
2018-12-11T08:33:06.986Z,5.53
2018-12-11T08:35:35.487Z,5.37
2018-12-11T08:38:04.203Z,6.20
2018-12-11T08:40:32.639Z,5.50
2018-12-11T08:43:01.378Z,6.03
2018-12-11T08:45:30.055Z,5.37
2018-12-11T08:47:58.641Z,5.77
2018-12-11T08:50:27.239Z,6.40
2018-12-11T08:52:55.784Z,5.37
2018-12-11T08:55:24.355Z,5.57
2018-12-11T08:57:52.901Z,6.27
2018-12-11T09:00:21.406Z,5.43
2018-12-11T09:02:50.536Z,6.37
2018-12-11T09:05:19.013Z,6.23
2018-12-11T09:07:47.449Z,5.43
2018-12-11T09:10:15.857Z,5.60
2018-12-11T09:12:44.358Z,6.00
2018-12-11T09:15:12.956Z,5.60
2018-12-11T09:17:41.463Z,5.60
2018-12-11T09:20:10.139Z,5.80
2018-12-11T09:22:38.684Z,5.50
2018-12-11T09:25:07.498Z,5.90
2018-12-11T09:27:36.141Z,5.67
2018-12-11T09:30:05.096Z,5.30
2018-12-11T09:32:33.542Z,5.60
2018-12-11T09:35:02.121Z,5.40
2018-12-11T09:37:30.580Z,5.47
2018-12-11T09:39:59.047Z,5.13
2018-12-11T09:42:28.309Z,5.20
2018-12-11T09:44:56.743Z,5.20
2018-12-11T09:47:25.339Z,5.37
2018-12-11T09:49:53.955Z,5.17
2018-12-11T09:52:22.480Z,5.00
2018-12-11T09:54:51.265Z,5.07
2018-12-11T09:57:19.805Z,4.40
2018-12-11T09:59:48.255Z,4.57
2018-12-11T10:02:16.690Z,4.30
2018-12-11T10:04:45.231Z,4.43
2018-12-11T10:07:13.941Z,4.60
2018-12-11T10:09:42.503Z,4.00
2018-12-11T10:12:17.567Z,4.70
2018-12-11T10:14:45.996Z,4.47
2018-12-11T10:17:14.546Z,4.30
2018-12-11T10:19:43.004Z,4.00
2018-12-11T10:22:11.446Z,4.20
2018-12-11T10:24:40.059Z,4.07
2018-12-11T10:27:08.535Z,4.40
2018-12-11T10:29:36.976Z,4.13
2018-12-11T10:32:05.463Z,3.70
2018-12-11T10:34:34.127Z,3.67
2018-12-11T10:37:02.559Z,3.53
2018-12-11T10:39:31.021Z,3.47
2018-12-11T10:41:59.534Z,3.40
2018-12-11T10:44:28.122Z,3.80
2018-12-11T10:46:56.567Z,3.50
2018-12-11T10:49:25.035Z,3.33
2018-12-11T10:51:53.625Z,3.23
2018-12-11T10:54:22.227Z,3.10
2018-12-11T10:56:50.682Z,3.10
2018-12-11T10:59:19.125Z,3.03
2018-12-11T11:01:49.637Z,3.00
2018-12-11T11:04:18.324Z,3.10
2018-12-11T11:06:46.831Z,3.43
2018-12-11T11:09:15.312Z,3.10
2018-12-11T11:11:43.808Z,2.97
2018-12-11T11:14:12.346Z,2.90
2018-12-11T11:16:41.144Z,3.13
2018-12-11T11:19:14.255Z,2.90
2018-12-11T11:21:42.709Z,2.50
2018-12-11T11:24:11.215Z,2.80
2018-12-11T11:26:39.669Z,2.90
2018-12-11T11:29:08.362Z,2.60
2018-12-11T11:31:36.962Z,3.00
2018-12-11T11:34:05.523Z,2.47
2018-12-11T11:36:34.442Z,2.90
2018-12-11T11:39:03.767Z,2.70
2018-12-11T11:41:32.398Z,2.53
2018-12-11T11:44:00.951Z,2.40
2018-12-11T11:46:29.353Z,2.43
2018-12-11T11:48:57.759Z,2.93
2018-12-11T11:51:30.208Z,2.73
2018-12-11T11:53:58.911Z,2.30
2018-12-11T11:56:27.302Z,2.40
2018-12-11T11:58:55.686Z,2.70
2018-12-11T12:01:24.125Z,2.40
2018-12-11T12:03:52.665Z,2.40
2018-12-11T12:06:21.259Z,2.10
2018-12-11T12:08:49.960Z,2.40
2018-12-11T12:11:18.712Z,2.40
2018-12-11T12:13:47.382Z,2.60
2018-12-11T12:16:15.806Z,2.40
2018-12-11T12:18:44.315Z,2.33
2018-12-11T12:21:13.029Z,2.20
2018-12-11T12:23:41.644Z,2.07
2018-12-11T12:26:10.467Z,2.33
2018-12-11T12:28:39.675Z,2.20
2018-12-11T12:31:08.721Z,2.30
2018-12-11T12:33:37.135Z,2.80
2018-12-11T12:36:05.564Z,2.27
2018-12-11T12:38:34.011Z,2.67
2018-12-11T12:41:02.521Z,2.20
2018-12-11T12:43:31.102Z,1.87
2018-12-11T12:45:59.700Z,2.40
2018-12-11T12:48:28.126Z,2.27
2018-12-11T12:50:56.530Z,2.33
2018-12-11T12:53:25.028Z,2.47
2018-12-11T12:55:54.223Z,1.90
2018-12-11T12:58:22.615Z,2.20
2018-12-11T13:00:51.379Z,2.30
2018-12-11T13:03:20.122Z,2.30
2018-12-11T13:05:49.223Z,2.23
2018-12-11T13:08:17.963Z,1.90
2018-12-11T13:10:46.392Z,1.97
2018-12-11T13:13:14.936Z,2.00
2018-12-11T13:15:43.528Z,2.07
2018-12-11T13:18:12.997Z,2.10
2018-12-11T13:20:41.443Z,2.03
2018-12-11T13:23:09.911Z,2.07
2018-12-11T13:25:38.595Z,1.77
2018-12-11T13:28:06.997Z,2.03
2018-12-11T13:30:35.451Z,2.00
2018-12-11T13:33:04.091Z,1.53
2018-12-11T13:35:32.587Z,1.80
2018-12-11T13:38:01.084Z,1.90
2018-12-11T13:40:29.605Z,2.20
2018-12-11T13:42:58.184Z,1.60
2018-12-11T13:45:27.092Z,2.10
2018-12-11T13:47:55.785Z,1.97
2018-12-11T13:50:25.182Z,2.10
2018-12-11T13:52:54.260Z,2.20
2018-12-11T13:55:22.755Z,2.23
2018-12-11T13:57:51.135Z,1.90
2018-12-11T14:00:19.516Z,1.90
2018-12-11T14:02:48.163Z,1.90
2018-12-11T14:05:16.581Z,2.00
2018-12-11T14:07:44.995Z,1.90
2018-12-11T14:10:13.630Z,2.03
2018-12-11T14:12:42.235Z,1.97
2018-12-11T14:15:10.627Z,1.70
2018-12-11T14:17:39.144Z,1.80
2018-12-11T14:20:07.868Z,1.97
2018-12-11T14:22:36.311Z,2.33
2018-12-11T14:25:04.999Z,1.97
2018-12-11T14:27:33.418Z,1.97
2018-12-11T14:30:01.958Z,1.90
2018-12-11T14:32:30.378Z,2.20
2018-12-11T14:34:58.860Z,1.83
2018-12-11T14:37:27.408Z,2.03
2018-12-11T14:39:56.006Z,2.00
2018-12-11T14:42:25.191Z,1.90
2018-12-11T14:44:58.015Z,2.10
2018-12-11T14:47:26.584Z,1.87
2018-12-11T14:49:55.139Z,1.90
2018-12-11T14:52:23.548Z,1.93
2018-12-11T14:54:52.050Z,1.73
2018-12-11T14:57:20.462Z,1.77
2018-12-11T14:59:49.266Z,1.93
2018-12-11T15:02:17.653Z,1.80
2018-12-11T15:04:46.237Z,2.03
2018-12-11T15:07:14.636Z,2.00
2018-12-11T15:09:47.358Z,1.90
2018-12-11T15:12:15.966Z,2.00
2018-12-11T15:14:44.512Z,1.93
2018-12-11T15:17:12.934Z,2.03
2018-12-11T21:41:23.002Z,17.73
2018-12-11T21:43:51.410Z,18.30
2018-12-11T21:46:19.866Z,18.80
2018-12-11T21:48:48.347Z,17.80
2018-12-11T21:51:16.838Z,18.20
2018-12-11T21:53:45.886Z,18.93
2018-12-11T21:56:14.344Z,18.93
2018-12-11T21:58:42.956Z,18.63
2018-12-11T22:01:11.639Z,17.97
2018-12-11T22:03:40.616Z,19.13
2018-12-11T22:06:09.422Z,18.50
2018-12-11T22:18:42.622Z,19.10
2018-12-11T22:21:11.302Z,19.30
2018-12-11T22:23:39.866Z,18.90
2018-12-11T22:26:08.291Z,19.20
2018-12-11T22:28:36.801Z,20.17
2018-12-11T22:31:05.395Z,19.43
2018-12-11T22:33:34.114Z,20.47
2018-12-11T22:36:03.434Z,19.40
2018-12-11T22:38:32.583Z,19.10
2018-12-11T22:41:03.927Z,19.93
2018-12-11T22:43:32.455Z,19.33
2018-12-11T22:46:01.292Z,19.03
2018-12-11T22:48:29.991Z,20.17
2018-12-11T22:50:58.469Z,19.13
2018-12-11T22:53:27.011Z,19.67
2018-12-11T22:55:55.553Z,20.73
2018-12-11T22:58:23.996Z,20.33
2018-12-11T23:00:55.586Z,20.17
2018-12-11T23:03:24.082Z,20.20
2018-12-11T23:05:52.715Z,20.33
2018-12-11T23:08:21.249Z,20.73
2018-12-11T23:10:49.736Z,20.53
2018-12-11T23:13:18.333Z,19.23
2018-12-11T23:15:47.103Z,20.00
2018-12-11T23:18:15.843Z,19.97
2018-12-11T23:20:45.683Z,19.83
2018-12-11T23:23:14.650Z,20.20
2018-12-11T23:25:43.176Z,19.73
2018-12-11T23:28:11.680Z,19.53
2018-12-11T23:30:40.305Z,19.17
2018-12-11T23:33:09.029Z,19.03
2018-12-11T23:35:39.055Z,20.27
2018-12-11T23:38:07.744Z,19.93
